M I D A S
Marine Information and Data Acquisition System
Tripno 450 of the Zeeleeuw from 2003-03-21 07:10:06 to 2003-03-21 13:16:12
Back to CruiseResearch ActivitiesStationsMapUnderway DataData graphs

EquipmentUnitsComment
TimeDGPSUTC
LatitudeDGPSDM.mWGS84
LongitudeDGPSDM.mWGS84
TemperatureSBE03/SBE38deg celciusITS90
ConductivitySBE21S/mITS90
SalinitySBE21 Practical Salinity Units
ChlorophylAChelsea fluorimeterg/lCalibrated in Aceton
Missing or incorrect values are displayed as -999
Sea surface data collected by the RV Zeeleeuw from 2003-03-21 07:10:06 to 2003-03-21 13:16:12
Time Latitude Longitude Temperature Conductivity Salinity ChlorophylA
2003-03-21 07:11:12 51°13.599 2°56.107 6.884538 2.852185 27.491058 8.219161
2003-03-21 07:12:12 51°13.607 2°56.079 6.926267 2.785792 26.773062 8.724802
2003-03-21 07:13:12 51°13.627 2°55.967 6.91569 2.77222 26.61183 13.073315
2003-03-21 07:14:12 51°13.667 2°55.84 6.85874 2.711309 25.990645 11.387845
2003-03-21 07:15:11 51°13.689 2°55.732 6.837857 2.720146 26.119131 11.11817
2003-03-21 07:16:12 51°13.696 2°55.718 6.910819 2.704788 25.967769 12.163161
2003-03-21 07:17:12 51°13.734 2°55.712 9.579547 2.58888 24.686926 14.185725
2003-03-21 07:18:11 51°13.803 2°55.649 9.564109 2.475211 23.426009 18.43311
2003-03-21 07:19:12 51°13.907 2°55.574 9.854695 2.51853 23.850074 20.590512
2003-03-21 07:20:11 51°14.016 2°55.498 9.514843 2.614541 24.922921 14.725076
2003-03-21 07:21:11 51°14.125 2°55.421 9.634566 2.761595 26.579748 13.3767
2003-03-21 07:22:12 51°14.235 2°55.31 8.978915 2.743185 26.398393 12.331708
2003-03-21 07:23:12 51°14.318 2°55.162 8.791638 2.752758 26.516145 13.34299
2003-03-21 07:24:12 51°14.396 2°54.968 9.103767 2.696899 25.922712 14.286853
2003-03-21 07:25:12 51°14.507 2°54.797 9.076228 2.809466 27.160475 14.421691
2003-03-21 07:26:12 51°14.645 2°54.791 8.286705 3.013525 29.45792 26.455947
2003-03-21 07:27:12 51°14.729 2°54.83 8.535732 3.079843 30.224566 29.220118
2003-03-21 07:28:12 51°14.779 2°54.814 8.489229 3.103425 30.494944 28.073999
2003-03-21 07:29:11 51°14.811 2°54.778 7.970057 3.102478 30.490714 27.264973
2003-03-21 07:30:11 51°14.855 2°54.74 8.480443 3.110058 30.579192 25.613212
2003-03-21 07:31:11 51°14.999 2°54.632 7.681988 3.110268 30.589854 24.736768
2003-03-21 07:32:12 51°15.165 2°54.464 8.313283 3.108268 30.561252 28.54593
2003-03-21 07:33:11 51°15.338 2°54.28 7.945128 3.13901 30.870426 26.186272
2003-03-21 07:34:12 51°15.521 2°54.064 8.249227 3.147959 30.957043 24.804187
2003-03-21 07:35:11 51°15.707 2°53.858 8.210473 3.144696 30.925374 21.770341
2003-03-21 07:36:11 51°15.899 2°53.646 7.990767 3.134905 30.858743 19.141007
2003-03-21 07:37:11 51°16.092 2°53.437 7.562578 3.134905 30.867962 19.747777
2003-03-21 07:38:12 51°16.288 2°53.226 7.727037 3.132167 30.838145 21.365828
2003-03-21 07:39:12 51°16.482 2°53.016 7.900329 3.133115 30.873832 21.23099
2003-03-21 07:40:12 51°16.678 2°52.809 7.964249 3.134694 30.901059 22.242272
2003-03-21 07:41:11 51°16.866 2°52.618 7.934185 3.134905 30.93343 19.714067
2003-03-21 07:42:11 51°17.058 2°52.435 8.47521 3.151119 31.097306 21.028734
2003-03-21 07:43:12 51°17.263 2°52.269 7.920964 3.179548 31.393861 20.927606
2003-03-21 07:44:12 51°17.479 2°52.176 8.026655 3.185339 31.45795 18.365691
2003-03-21 07:45:11 51°17.695 2°52.131 7.797924 3.193868 31.570111 16.781349
2003-03-21 07:46:11 51°17.912 2°52.073 7.433284 3.205767 31.746316 16.208289
2003-03-21 07:47:11 51°18.093 2°51.855 7.619975 3.198292 31.718255 15.432973
2003-03-21 07:48:12 51°18.2 2°51.507 7.870768 3.188183 31.6247 15.837486
2003-03-21 07:49:12 51°18.22 2°51.111 7.965362 3.184709 31.591292 15.500392
2003-03-21 07:50:11 51°18.27 2°50.733 7.407316 3.180602 31.539087 17.219571
2003-03-21 07:51:12 51°18.441 2°50.471 7.84711 3.1726 31.456776 16.916187
2003-03-21 07:52:12 51°18.657 2°50.394 7.565452 3.168388 31.408983 15.466683
2003-03-21 07:53:12 51°18.877 2°50.382 7.792246 3.162071 31.351457 14.387982
2003-03-21 07:54:11 51°19.089 2°50.331 7.423523 3.147541 31.201455 13.174443
2003-03-21 07:55:12 51°19.252 2°50.064 7.774578 3.139539 31.123842 12.297999
2003-03-21 07:56:11 51°19.291 2°49.674 7.758411 3.126063 30.996282 12.196871
2003-03-21 07:57:11 51°19.285 2°49.259 7.519753 3.145436 31.203391 15.534101
2003-03-21 07:58:11 51°19.27 2°48.845 7.764432 3.151858 31.273117 17.624084
2003-03-21 07:59:12 51°19.304 2°48.437 7.833435 3.154806 31.299206 16.612802
2003-03-21 08:00:12 51°19.453 2°48.131 7.659135 3.160387 31.373075 15.264426
2003-03-21 08:01:11 51°19.658 2°48.009 7.431576 3.146594 31.231778 15.163298
2003-03-21 08:02:11 51°19.873 2°47.948 7.520582 3.121748 31.019784 16.140871
2003-03-21 08:03:11 51°20.094 2°47.881 7.578162 3.121643 31.059261 16.71393
2003-03-21 08:04:11 51°20.277 2°47.66 7.355396 3.110273 30.954424 14.691366
2003-03-21 08:05:12 51°20.381 2°47.289 7.578065 3.103956 30.904379 12.601383
2003-03-21 08:06:12 51°20.401 2°46.869 7.333698 3.10343 30.91184 10.915913
2003-03-21 08:07:11 51°20.41 2°46.47 7.694188 3.108062 30.960531 11.11817
2003-03-21 08:08:11 51°20.418 2°46.057 7.380506 3.10922 30.965475 11.08446
2003-03-21 08:09:11 51°20.405 2°45.645 7.551083 3.118274 31.066015 11.320426
2003-03-21 08:10:12 51°20.378 2°45.24 7.665749 3.135751 31.257908 14.725076
2003-03-21 08:11:11 51°20.334 2°44.847 6.084012 3.149965 31.417897 14.657657
2003-03-21 08:12:12 51°20.204 2°44.487 6.122484 3.147754 31.395871 14.118306
2003-03-21 08:13:11 51°20.074 2°44.14 6.162923 3.149228 31.412141 14.050888
2003-03-21 08:14:12 51°19.944 2°43.778 6.126818 3.15007 31.419852 13.949759
2003-03-21 08:15:11 51°19.819 2°43.424 6.129956 3.147333 31.388846 13.680084
2003-03-21 08:16:12 51°19.692 2°43.051 6.133243 3.152492 31.440236 13.140734
2003-03-21 08:17:11 51°19.568 2°42.694 6.092735 3.152386 31.439074 12.972187
2003-03-21 08:18:12 51°19.473 2°42.307 6.087601 3.150912 31.423599 12.028324
2003-03-21 08:19:12 51°19.491 2°41.903 6.114363 3.153439 31.445934 11.960905
2003-03-21 08:20:11 51°19.605 2°41.556 6.169096 3.160809 31.505825 11.623811
2003-03-21 08:21:11 51°19.758 2°41.239 6.162873 3.169864 31.588223 12.466546
2003-03-21 08:22:11 51°19.931 2°40.954 6.209107 3.182499 31.701281 13.91605
2003-03-21 08:23:11 51°20.137 2°40.759 6.264803 3.208612 31.94842 22.613076
2003-03-21 08:24:11 51°20.334 2°40.547 6.280558 3.231567 32.154807 23.017589
2003-03-21 08:25:11 51°20.437 2°40.193 6.258092 3.219984 32.069023 20.017452
2003-03-21 08:26:12 51°20.434 2°39.824 6.154857 3.211456 32.021639 16.410546
2003-03-21 08:27:12 51°20.423 2°39.565 6.198062 3.208613 32.00233 15.432973
2003-03-21 08:28:11 51°20.412 2°39.363 6.170788 3.209981 32.011001 15.837486
2003-03-21 08:29:12 51°20.401 2°39.182 6.196221 3.212614 32.022337 15.803777
2003-03-21 08:30:11 51°20.387 2°39.014 6.252524 3.217352 32.052875 16.882477
2003-03-21 08:31:11 51°20.376 2°38.846 6.250486 3.219353 32.067696 17.084734
2003-03-21 08:32:11 51°20.365 2°38.678 6.219106 3.220511 32.07725 17.624084
2003-03-21 08:33:11 51°20.356 2°38.511 6.231938 3.223459 32.100904 18.028597
2003-03-21 08:34:12 51°20.346 2°38.339 6.272556 3.225776 32.115968 17.961178
2003-03-21 08:35:11 51°20.337 2°38.173 6.24263 3.227671 32.132836 18.871332
2003-03-21 08:36:11 51°20.33 2°38.003 6.293129 3.232094 32.171918 19.039879
2003-03-21 08:37:11 51°20.319 2°37.833 6.26182 3.233463 32.179741 19.410683
2003-03-21 08:38:12 51°20.309 2°37.659 6.311658 3.236938 32.211588 19.680358
2003-03-21 08:39:10 51°20.3 2°37.492 6.313198 3.239044 32.229954 19.781486
2003-03-21 08:40:11 51°20.29 2°37.318 6.298097 3.243677 32.269701 20.253418
2003-03-21 08:41:11 51°20.378 2°37.048 6.379074 3.258314 32.383983 21.635503
2003-03-21 08:42:12 51°20.534 2°36.747 6.463812 3.267054 32.435588 22.983879
2003-03-21 08:43:11 51°20.682 2°36.449 6.44384 3.2739 32.501977 23.118717
2003-03-21 08:44:11 51°20.763 2°36.07 6.402935 3.265791 32.45253 21.80405
2003-03-21 08:45:12 51°20.81 2°35.659 6.401794 3.270951 32.492282 26.523366
2003-03-21 08:46:11 51°20.835 2°35.261 6.363393 3.273479 32.515229 30.366238
2003-03-21 08:47:12 51°20.763 2°34.855 6.375253 3.27548 32.539702 28.444802
2003-03-21 08:48:12 51°20.679 2°34.462 6.466636 3.282746 32.608308 30.197691
2003-03-21 08:49:12 51°20.599 2°34.062 6.389988 3.286853 32.645373 29.928016
2003-03-21 08:50:12 51°20.523 2°33.66 6.473969 3.288327 32.657524 28.950443
2003-03-21 08:51:11 51°20.446 2°33.26 6.431695 3.286537 32.639445 27.46723
2003-03-21 08:52:11 51°20.372 2°32.852 8.031152 3.28759 32.652673 26.489657
2003-03-21 08:53:12 51°20.264 2°32.453 7.828536 3.286643 32.65612 25.2087
2003-03-21 08:54:12 51°20.085 2°32.144 7.717369 3.291698 32.715083 26.219982
2003-03-21 08:55:12 51°19.853 2°31.972 8.065374 3.297385 32.768736 26.2874
2003-03-21 08:56:12 51°19.609 2°31.908 7.49304 3.308337 32.85001 28.883024
2003-03-21 08:57:12 51°19.376 2°31.984 8.144433 3.313287 32.888087 29.253828
2003-03-21 08:58:12 51°19.144 2°32.088 8.430586 3.317605 32.92165 30.534785
2003-03-21 08:59:12 51°18.911 2°32.182 7.529743 3.320975 32.951341 30.669623
2003-03-21 09:00:12 51°18.678 2°32.269 7.738646 3.324029 32.975081 30.26511
2003-03-21 09:01:12 51°18.444 2°32.35 7.559266 3.328663 33.010429 30.568494
2003-03-21 09:02:12 51°18.214 2°32.43 7.854189 3.334245 33.054533 32.793315
2003-03-21 09:03:12 51°17.979 2°32.499 8.031152 3.336668 33.067989 35.35523
2003-03-21 09:04:12 51°17.748 2°32.567 7.914668 3.309179 32.796203 29.287537
2003-03-21 09:05:12 51°17.505 2°32.536 8.011035 3.315498 32.841916 32.759606
2003-03-21 09:06:12 51°17.28 2°32.352 7.781617 3.339195 33.042287 38.422785
2003-03-21 09:07:12 51°17.121 2°32.036 7.570273 3.360681 33.233639 44.490477
2003-03-21 09:08:12 51°16.989 2°31.683 7.933265 3.368685 33.305781 48.8727
2003-03-21 09:09:12 51°16.863 2°31.322 7.63535 3.367843 33.301495 49.41205
2003-03-21 09:10:12 51°16.764 2°30.941 7.937768 3.364157 33.278393 47.659161
2003-03-21 09:11:12 51°16.673 2°30.546 7.695549 3.362471 33.27229 43.276939
2003-03-21 09:12:12 51°16.58 2°30.147 7.932345 3.361734 33.265847 40.310512
2003-03-21 09:13:12 51°16.485 2°29.749 8.00644 3.361208 33.261717 39.400358
2003-03-21 09:14:12 51°16.388 2°29.351 8.477034 3.359944 33.251144 38.422785
2003-03-21 09:15:12 51°16.291 2°28.95 8.154857 3.358048 33.236933 36.366512
2003-03-21 09:16:12 51°16.152 2°28.592 8.265126 3.357521 33.242718 34.984426
2003-03-21 09:17:12 51°15.927 2°28.388 7.994782 3.356152 33.229328 30.669623
2003-03-21 09:18:12 51°15.68 2°28.333 8.31232 3.358364 33.246188 32.928153
2003-03-21 09:19:12 51°15.429 2°28.34 7.956746 3.364894 33.296409 36.265383
2003-03-21 09:20:12 51°15.179 2°28.357 7.910986 3.376059 33.391663 39.029554
2003-03-21 09:21:12 51°14.929 2°28.367 8.327964 3.38775 33.486793 41.456631
2003-03-21 09:22:12 51°14.681 2°28.382 8.029846 3.392806 33.525648 42.703879
2003-03-21 09:23:12 51°14.43 2°28.373 8.211293 3.397756 33.562491 45.333212
2003-03-21 09:24:12 51°14.197 2°28.184 7.951179 3.403866 33.60203 52.412187
2003-03-21 09:25:12 51°14.005 2°27.898 8.154471 3.407658 33.636102 56.996665
2003-03-21 09:26:12 51°13.846 2°27.558 7.965701 3.410712 33.659589 53.457178
2003-03-21 09:27:12 51°13.693 2°27.213 8.289643 3.415031 33.697749 49.715435
2003-03-21 09:28:12 51°13.55 2°26.855 7.90154 3.417664 33.7191 48.906409
2003-03-21 09:29:12 51°13.414 2°26.487 8.189786 3.41956 33.73487 47.086101
2003-03-21 09:30:12 51°13.279 2°26.122 7.985687 3.421351 33.746981 43.816289
2003-03-21 09:31:12 51°13.144 2°25.756 8.020707 3.42093 33.745702 41.153247
2003-03-21 09:32:12 51°12.978 2°25.426 7.832368 3.421035 33.746021 39.83858
2003-03-21 09:33:12 51°12.764 2°25.172 7.807046 3.424406 33.775436 38.355366
2003-03-21 09:34:12 51°12.521 2°25.012 8.456768 3.427777 33.800668 37.782306
2003-03-21 09:35:12 51°12.265 2°24.958 8.026897 3.434307 33.845451 38.186819
2003-03-21 09:36:12 51°12.01 2°24.967 8.261176 3.44284 33.921285 43.310648
2003-03-21 09:37:12 51°11.756 2°24.977 8.180718 3.447264 33.957985 44.861281
2003-03-21 09:38:12 51°11.505 2°24.986 8.662303 3.445157 33.929075 40.849862
2003-03-21 09:39:12 51°11.256 2°24.99 8.071946 3.445473 33.931696 43.614033
2003-03-21 09:40:12 51°11.008 2°24.998 8.181152 3.442629 33.902255 51.535742
2003-03-21 09:41:12 51°10.794 2°25.122 8.59682 3.437467 33.847467 45.333212
2003-03-21 09:42:12 51°10.646 2°25.366 8.343314 3.429988 33.744056 49.98511
2003-03-21 09:43:12 51°10.635 2°25.676 8.327819 3.428407 33.707694 50.55817
2003-03-21 09:44:12 51°10.709 2°25.967 8.578174 3.427143 33.651642 50.389623
2003-03-21 09:45:12 51°10.778 2°26.259 8.616563 3.427564 33.656236 59.929383
2003-03-21 09:46:12 51°10.841 2°26.559 8.649519 3.43083 33.704278 65.154341
2003-03-21 09:47:12 51°10.904 2°26.861 8.1286 3.430198 33.702356 68.154477
2003-03-21 09:48:12 51°10.96 2°27.164 8.364578 3.429461 33.696797 68.188187
2003-03-21 09:49:12 51°11.013 2°27.468 8.086392 3.427986 33.684849 68.120768
2003-03-21 09:50:12 51°11.063 2°27.772 8.712078 3.426511 33.671242 68.120768
2003-03-21 09:51:12 51°11.111 2°28.076 8.668384 3.425352 33.661911 68.188187
2003-03-21 09:52:12 51°11.162 2°28.381 8.742977 3.424299 33.654556 68.154477
2003-03-21 09:53:12 51°11.209 2°28.689 8.269173 3.423246 33.645544 68.154477
2003-03-21 09:54:12 51°11.255 2°28.996 7.793265 3.422087 33.635382 68.154477
2003-03-21 09:55:12 51°11.296 2°29.303 8.617138 3.420402 33.620298 68.154477
2003-03-21 09:56:12 51°11.342 2°29.609 8.3283 3.417452 33.592242 68.188187
2003-03-21 09:57:12 51°11.411 2°29.903 8.390547 3.408393 33.509889 68.188187
2003-03-21 09:58:12 51°11.503 2°30.173 8.424387 3.402389 33.456723 68.154477
2003-03-21 09:59:12 51°11.663 2°30.351 8.813997 3.398703 33.425542 68.323024
2003-03-21 10:00:12 51°11.828 2°30.516 8.169188 3.39154 33.356399 65.019503
2003-03-21 10:01:12 51°11.994 2°30.68 8.160937 3.385326 33.298416 62.255332
2003-03-21 10:02:12 51°12.158 2°30.845 8.319974 3.382482 33.273115 62.154204
2003-03-21 10:03:12 51°12.332 2°30.98 8.285886 3.377215 33.212346 60.064221
2003-03-21 10:04:12 51°12.5 2°31.128 8.717532 3.375108 33.18199 57.637144
2003-03-21 10:05:12 51°12.612 2°31.373 8.448987 3.373107 33.158521 58.513589
2003-03-21 10:06:12 51°12.674 2°31.663 8.299851 3.369842 33.119637 58.513589
2003-03-21 10:07:12 51°12.706 2°31.968 8.802675 3.370895 33.128674 58.345042
2003-03-21 10:08:12 51°12.744 2°32.276 8.641042 3.369842 33.120453 59.356324
2003-03-21 10:09:12 51°12.786 2°32.586 8.445864 3.367946 33.101409 61.951947
2003-03-21 10:10:12 51°12.831 2°32.898 8.263585 3.364154 33.061689 66.704973
2003-03-21 10:11:12 51°12.93 2°33.175 8.52177 3.367735 33.081982 68.154477
2003-03-21 10:12:12 51°13.096 2°33.354 8.612251 3.369525 33.08275 68.188187
2003-03-21 10:13:12 51°13.275 2°33.51 8.593225 3.36942 33.076715 68.154477
2003-03-21 10:14:12 51°13.47 2°33.558 8.421456 3.367735 33.080352 63.974512
2003-03-21 10:15:12 51°13.679 2°33.492 8.660676 3.364681 33.061725 55.884255
2003-03-21 10:16:12 51°13.888 2°33.422 8.604105 3.36426 33.096299 53.423469
2003-03-21 10:17:12 51°14.093 2°33.348 8.398239 3.363839 33.144887 48.636734
2003-03-21 10:18:12 51°14.297 2°33.309 8.131351 3.359731 33.100798 42.737589
2003-03-21 10:19:12 51°14.495 2°33.341 8.324065 3.353201 33.054763 39.568905
2003-03-21 10:20:12 51°14.673 2°33.456 8.58824 3.348462 33.013554 37.950853
2003-03-21 10:21:12 51°14.848 2°33.589 7.96362 3.34151 32.943241 37.310375
2003-03-21 10:22:12 51°15.016 2°33.732 8.228262 3.333716 32.852325 37.0407
2003-03-21 10:23:12 51°15.173 2°33.909 8.650428 3.328029 32.80316 35.726033
2003-03-21 10:24:12 51°15.321 2°34.099 8.288342 3.322131 32.752482 34.276529
2003-03-21 10:25:11 51°15.424 2°34.344 8.288342 3.321289 32.744893 33.568631
2003-03-21 10:26:12 51°15.447 2°34.649 8.171455 3.318656 32.716106 35.388939
2003-03-21 10:27:12 51°15.379 2°34.949 8.328156 3.313916 32.670775 35.051845
2003-03-21 10:28:12 51°15.2 2°35.157 8.132751 3.314759 32.67027 37.108118
2003-03-21 10:29:12 51°14.963 2°35.224 8.027187 3.316233 32.690435 38.861007
2003-03-21 10:30:11 51°14.726 2°35.268 8.582296 3.323079 32.739322 39.939708
2003-03-21 10:31:12 51°14.488 2°35.334 8.641521 3.335085 32.833966 46.782717
2003-03-21 10:32:11 51°14.256 2°35.409 8.591883 3.339719 32.868321 52.884118
2003-03-21 10:33:12 51°14.02 2°35.479 8.364722 3.345617 32.896133 59.052939
2003-03-21 10:34:12 51°13.82 2°35.646 8.430201 3.355096 32.95887 57.670853
2003-03-21 10:35:12 51°13.679 2°35.902 8.261995 3.357518 32.964957 61.041794
2003-03-21 10:36:13 51°13.66 2°36.219 7.977074 3.355095 32.913433 55.412324
2003-03-21 10:37:12 51°13.713 2°36.517 8.437745 3.352041 32.893957 53.962819
2003-03-21 10:38:12 51°13.814 2°36.791 8.314727 3.348144 32.862866 53.726853
2003-03-21 10:39:12 51°13.926 2°37.063 8.428904 3.345827 32.840065 51.940255
2003-03-21 10:40:12 51°14.03 2°37.334 8.370638 3.344774 32.836688 53.423469
2003-03-21 10:41:12 51°14.093 2°37.633 8.355102 3.340561 32.805365 54.165076
2003-03-21 10:42:12 51°14.123 2°37.949 8.348463 3.336559 32.782788 52.041383
2003-03-21 10:43:12 51°14.15 2°38.272 8.236697 3.333715 32.746143 47.861418
2003-03-21 10:44:12 51°14.147 2°38.606 8.235444 3.333083 32.744105 46.816426
2003-03-21 10:45:12 51°14.093 2°38.935 8.752253 3.328765 32.711586 49.108665
2003-03-21 10:46:12 51°13.932 2°39.171 8.557699 3.322867 32.661826 48.8727
2003-03-21 10:47:12 51°13.706 2°39.08 8.498734 3.313494 32.591866 46.513042
2003-03-21 10:48:12 51°13.49 2°38.893 8.410065 3.3037 32.523657 44.254512
2003-03-21 10:49:12 51°13.278 2°38.685 8.01413 3.295065 32.45673 44.220802
2003-03-21 10:50:12 51°13.064 2°38.474 8.052422 3.297487 32.471115 42.63646
2003-03-21 10:51:12 51°12.85 2°38.262 8.103491 3.306965 32.540769 44.220802
2003-03-21 10:52:12 51°12.636 2°38.049 8.346346 3.309176 32.560068 45.232084
2003-03-21 10:53:12 51°12.42 2°37.834 7.961006 3.310335 32.569485 46.513042
2003-03-21 10:54:12 51°12.203 2°37.619 7.819999 3.312968 32.587734 46.445623
2003-03-21 10:55:12 51°11.987 2°37.404 8.049957 3.31876 32.629142 48.8727
2003-03-21 10:56:12 51°11.772 2°37.19 8.356689 3.328449 32.702491 50.018819
2003-03-21 10:57:12 51°11.557 2°36.978 8.224165 3.336137 32.758799 51.569452
2003-03-21 10:58:13 51°11.341 2°36.765 8.554342 3.340877 32.790212 53.423469
2003-03-21 10:59:12 51°11.13 2°36.557 8.183756 3.344879 32.814383 53.389759
2003-03-21 11:00:12 51°10.916 2°36.348 8.507998 3.353515 32.879242 58.243913
2003-03-21 11:01:12 51°10.703 2°36.136 8.079725 3.370051 33.012072 65.424016
2003-03-21 11:02:12 51°10.489 2°35.93 8.446537 3.385324 33.146386 63.873383
2003-03-21 11:03:12 51°10.276 2°35.725 7.905367 3.389748 33.181436 66.974648
2003-03-21 11:04:12 51°10.04 2°35.64 8.859836 3.390801 33.182298 68.188187
2003-03-21 11:05:12 51°9.81 2°35.729 8.376265 3.389958 33.165013 68.188187
2003-03-21 11:06:12 51°9.601 2°35.891 8.475786 3.386271 33.099831 65.862238
2003-03-21 11:07:12 51°9.397 2°36.058 8.075763 3.38606 33.080529 68.188187
2003-03-21 11:08:12 51°9.278 2°36.335 8.53199 3.377529 32.99531 68.188187
2003-03-21 11:09:12 51°9.296 2°36.655 8.314775 3.359834 32.846184 64.277896
2003-03-21 11:10:12 51°9.414 2°36.924 8.664075 3.347932 32.753269 62.92952
2003-03-21 11:11:12 51°9.561 2°37.148 8.896389 3.345931 32.735571 64.07564
2003-03-21 11:12:12 51°9.72 2°37.365 8.234384 3.347406 32.745946 64.210477
2003-03-21 11:13:12 51°9.875 2°37.583 8.767981 3.347932 32.742017 63.165486
2003-03-21 11:14:12 51°10.036 2°37.798 8.890187 3.3572 32.811994 68.424153
2003-03-21 11:15:12 51°10.195 2°38.009 8.644011 3.363731 32.898137 68.323024
2003-03-21 11:16:12 51°10.311 2°38.278 8.810127 3.365627 32.914674 67.210614
2003-03-21 11:17:12 51°10.244 2°38.577 8.336722 3.368576 32.930526 68.154477
2003-03-21 11:18:12 51°10.117 2°38.86 8.290124 3.366259 32.929608 65.086922
2003-03-21 11:19:12 51°9.998 2°39.155 7.913408 3.35204 32.772912 52.648153
2003-03-21 11:20:12 51°9.877 2°39.446 8.318048 3.331923 32.599602 53.322341
2003-03-21 11:21:12 51°9.76 2°39.74 8.553143 3.328869 32.573662 56.828118
2003-03-21 11:22:12 51°9.795 2°40.042 7.686217 3.329922 32.585092 60.873247
2003-03-21 11:23:12 51°9.964 2°40.236 8.485437 3.328237 32.559605 60.232768
2003-03-21 11:24:12 51°10.139 2°40.43 8.10919 3.327394 32.552063 62.525007
2003-03-21 11:25:12 51°10.316 2°40.618 8.330562 3.317495 32.46621 57.468597
2003-03-21 11:26:12 51°10.492 2°40.81 8.243685 3.307068 32.369802 54.535879
2003-03-21 11:27:12 51°10.663 2°41.01 8.029266 3.307279 32.358559 48.670443
2003-03-21 11:28:12 51°10.837 2°41.202 8.202758 3.31128 32.374917 44.052255
2003-03-21 11:29:12 51°10.914 2°41.502 8.670921 3.332449 32.570916 52.041383
2003-03-21 11:30:12 51°10.881 2°41.837 8.354428 3.340454 32.664912 49.681725
2003-03-21 11:31:12 51°10.825 2°42.161 8.494078 3.336557 32.627453 48.636734
2003-03-21 11:32:12 51°10.781 2°42.489 8.384777 3.29622 32.213296 38.422785
2003-03-21 11:33:12 51°10.725 2°42.815 8.180766 3.281055 32.081367 38.490204
2003-03-21 11:34:12 51°10.641 2°43.13 8.144867 3.260309 31.890366 38.15311
2003-03-21 11:35:12 51°10.589 2°43.452 7.79045 3.243987 31.752605 44.389349
2003-03-21 11:36:12 51°10.649 2°43.764 8.201022 3.233457 31.642347 40.849862
2003-03-21 11:37:12 51°10.758 2°44.048 8.195959 3.228507 31.58715 42.400494
2003-03-21 11:38:12 51°10.861 2°44.347 8.741494 3.2224 31.543522 48.400768
2003-03-21 11:39:12 51°10.964 2°44.642 8.464453 3.218925 31.50663 42.198238
2003-03-21 11:40:12 51°11.064 2°44.936 8.022738 3.216293 31.474992 37.647469
2003-03-21 11:41:12 51°11.164 2°45.229 8.149452 3.223243 31.553433 38.355366
2003-03-21 11:42:12 51°11.266 2°45.52 8.142164 3.215977 31.477779 36.46764
2003-03-21 11:43:12 51°11.367 2°45.809 8.231203 3.202077 31.335672 35.692324
2003-03-21 11:44:12 51°11.467 2°46.099 8.020707 3.187652 31.201749 33.770888
2003-03-21 11:45:11 51°11.565 2°46.382 7.720089 3.177228 31.088826 29.759469
2003-03-21 11:46:12 51°11.665 2°46.676 7.696424 3.180387 31.110749 29.759469
2003-03-21 11:47:12 51°11.764 2°46.968 7.814081 3.178597 31.109796 30.602204
2003-03-21 11:48:12 51°11.863 2°47.263 8.113681 3.179755 31.123112 30.770751
2003-03-21 11:49:13 51°11.965 2°47.56 8.447209 3.178386 31.096763 29.523503
2003-03-21 11:50:12 51°12.064 2°47.848 8.129034 3.167331 30.995434 28.242546
2003-03-21 11:51:12 51°12.164 2°48.143 8.031007 3.164804 30.97572 28.512221
2003-03-21 11:52:12 51°12.263 2°48.439 7.957908 3.171226 31.03763 29.658341
2003-03-21 11:53:12 51°12.37 2°48.733 7.537978 3.168805 31.025961 29.220118
2003-03-21 11:54:12 51°12.479 2°49.026 8.321177 3.167647 31.027214 29.085281
2003-03-21 11:55:12 51°12.588 2°49.318 8.378478 3.164067 31.006812 27.399811
2003-03-21 11:56:12 51°12.694 2°49.61 8.10267 3.163541 31.01031 25.916597
2003-03-21 11:57:12 51°12.801 2°49.896 8.402614 3.162488 30.982785 21.905178
2003-03-21 11:58:12 51°12.909 2°50.181 8.215777 3.150064 30.862631 20.624221
2003-03-21 11:59:13 51°13.016 2°50.469 7.819174 3.133218 30.699841 21.23099
2003-03-21 12:00:11 51°13.117 2°50.742 8.045752 3.108688 30.429587 20.995024
2003-03-21 12:01:11 51°13.224 2°51.025 7.851377 3.085211 30.156933 20.759059
2003-03-21 12:02:11 51°13.329 2°51.308 7.748602 3.078368 30.098638 20.624221
2003-03-21 12:03:11 51°13.346 2°51.528 8.174302 3.087315 30.090368 19.882614
2003-03-21 12:04:11 51°13.265 2°51.537 8.390066 3.065525 29.928756 19.073589
2003-03-21 12:05:11 51°13.216 2°51.455 8.191184 3.066156 29.954087 19.107298
2003-03-21 12:06:11 51°13.209 2°51.358 8.274134 3.068051 29.972323 18.905042
2003-03-21 12:07:11 51°13.228 2°51.288 8.022303 3.068157 29.992009 19.410683
2003-03-21 12:08:11 51°13.256 2°51.216 7.865436 3.067946 30.008307 19.983742
2003-03-21 12:09:11 51°13.282 2°51.138 7.915055 3.071841 30.051165 20.523093
2003-03-21 12:10:11 51°13.292 2°51.082 7.855789 3.073104 30.048449 19.950033
2003-03-21 12:11:11 51°13.296 2°51.04 8.137434 3.074999 30.04364 19.747777
2003-03-21 12:12:11 51°13.301 2°50.993 7.567156 3.078789 30.083084 20.219708
2003-03-21 12:13:11 51°13.302 2°50.925 7.802145 3.079316 30.139468 20.995024
2003-03-21 12:14:11 51°13.295 2°50.873 8.682026 3.080474 30.169193 21.028734
2003-03-21 12:15:11 51°13.291 2°50.831 8.19485 3.080474 30.175928 20.927606
2003-03-21 12:16:11 51°13.281 2°50.742 7.642063 3.089949 30.273297 20.995024
2003-03-21 12:17:11 51°13.209 2°50.728 8.520667 3.100266 30.38734 20.523093
2003-03-21 12:18:11 51°13.173 2°50.791 8.48222 3.109846 30.486659 20.051161
2003-03-21 12:19:11 51°13.163 2°50.884 7.938156 3.098371 30.375089 20.523093
2003-03-21 12:20:11 51°13.173 2°50.969 8.172806 3.084685 30.225281 19.848905
2003-03-21 12:21:11 51°13.176 2°51.007 8.498014 3.078579 30.122537 18.736494
2003-03-21 12:22:11 51°13.172 2°51.03 7.688453 3.077105 30.096159 19.208426
2003-03-21 12:23:11 51°13.17 2°51.039 8.274568 3.078368 30.109818 19.646648
2003-03-21 12:24:11 51°13.173 2°51.053 8.396749 3.077526 30.109659 19.714067
2003-03-21 12:25:11 51°13.174 2°51.056 8.632229 3.077631 30.107069 19.848905
2003-03-21 12:26:11 51°13.168 2°51.057 8.916804 3.076789 30.097217 19.815195
2003-03-21 12:27:11 51°13.159 2°51.054 8.440339 3.07521 30.087594 19.848905
2003-03-21 12:28:11 51°13.146 2°51.046 8.236263 3.075421 30.086145 19.511811
2003-03-21 12:29:11 51°13.147 2°51.088 7.723296 3.075 30.088299 19.612939
2003-03-21 12:30:11 51°13.223 2°51.153 7.761665 3.076052 30.09894 19.983742
2003-03-21 12:31:11 51°13.28 2°51.114 8.001119 3.073631 30.072752 19.039879
2003-03-21 12:32:11 51°13.317 2°51.081 7.73952 3.066051 29.949245 18.43311
2003-03-21 12:33:11 51°13.339 2°51.056 8.326423 3.062893 29.912193 19.073589
2003-03-21 12:34:11 51°13.353 2°51.037 8.390884 3.064262 29.957346 19.714067
2003-03-21 12:35:11 51°13.367 2°51.023 8.676235 3.065104 29.999876 20.185999
2003-03-21 12:36:11 51°13.377 2°51.009 7.683738 3.065315 30.033429 20.489383
2003-03-21 12:37:11 51°13.389 2°50.999 8.279866 3.067631 30.065973 20.860187
2003-03-21 12:38:11 51°13.397 2°50.989 8.263151 3.069737 30.081314 20.961315
2003-03-21 12:39:11 51°13.403 2°50.983 8.107934 3.067737 30.080556 20.792768
2003-03-21 12:40:11 51°13.406 2°50.981 8.258574 3.067842 30.08095 20.792768
2003-03-21 12:41:11 51°13.405 2°50.98 7.982687 3.067421 30.078628 20.624221
2003-03-21 12:42:11 51°13.403 2°50.983 8.298166 3.068368 30.08516 20.69164
2003-03-21 12:43:11 51°13.399 2°50.983 8.348078 3.068158 30.082878 20.69164
2003-03-21 12:44:11 51°13.395 2°50.988 7.756469 3.069631 30.092872 20.65793
2003-03-21 12:45:11 51°13.392 2°50.995 8.206616 3.069421 30.092832 20.590512
2003-03-21 12:46:11 51°13.389 2°51 8.319541 3.071737 30.110453 20.590512
2003-03-21 12:47:11 51°13.387 2°51.006 8.237468 3.071737 30.108958 20.523093
2003-03-21 12:48:11 51°13.385 2°51.009 8.164122 3.071842 30.109351 20.590512
2003-03-21 12:49:11 51°13.383 2°51.019 8.084556 3.072158 30.109783 20.455674
2003-03-21 12:50:11 51°13.382 2°51.025 8.122468 3.072263 30.108681 20.590512
2003-03-21 12:51:11 51°13.382 2°51.033 8.175218 3.072263 30.110176 20.455674
2003-03-21 12:52:11 51°13.381 2°51.043 8.345239 3.072789 30.112888 20.421965
2003-03-21 12:53:11 51°13.383 2°51.052 8.465509 3.074158 30.117248 20.287127
2003-03-21 12:54:11 51°13.39 2°51.059 7.395304 3.073842 30.105612 20.253418
2003-03-21 12:55:11 51°13.398 2°51.066 8.229757 3.078368 30.135938 19.983742
2003-03-21 12:56:11 51°13.411 2°51.075 7.946919 3.093949 30.296349 20.421965
2003-03-21 12:57:11 51°13.423 2°51.087 8.276398 3.108372 30.44275 20.792768
2003-03-21 12:58:11 51°13.436 2°51.099 8.442838 3.11711 30.534384 20.65793
2003-03-21 12:59:11 51°13.448 2°51.11 8.405595 3.122585 30.586127 20.388255
2003-03-21 13:00:11 51°13.459 2°51.123 8.483084 3.124164 30.606269 19.950033
2003-03-21 13:01:11 51°13.471 2°51.136 8.635198 3.125217 30.62147 19.882614
2003-03-21 13:02:11 51°13.482 2°51.147 8.428616 3.125638 30.621483 20.084871
2003-03-21 13:03:11 51°13.533 2°51.115 8.343796 3.123743 30.607013 20.388255
2003-03-21 13:04:11 51°13.667 2°51.215 8.266572 3.124269 30.609685 20.489383
2003-03-21 13:05:12 51°13.726 2°51.572 8.082141 3.11311 30.520531 22.006306
2003-03-21 13:06:12 51°13.817 2°51.932 7.769335 3.10732 30.459268 21.197281
2003-03-21 13:07:11 51°13.916 2°52.292 8.229371 3.100371 30.402053 21.062443
2003-03-21 13:08:11 51°14.012 2°52.656 7.53944 3.089634 30.31875 21.298409
2003-03-21 13:09:11 51°14.11 2°53.024 7.530182 3.090476 30.340701 20.725349
2003-03-21 13:10:11 51°14.21 2°53.387 7.888748 3.070579 30.133071 19.714067
2003-03-21 13:11:11 51°14.304 2°53.749 7.998169 3.049841 29.907486 18.871332
2003-03-21 13:12:11 51°14.337 2°54.122 8.275917 3.042472 29.820238 18.365691
2003-03-21 13:13:11 51°14.379 2°54.498 8.099965 3.027209 29.627759 17.590375
2003-03-21 13:14:11 51°14.38 2°54.857 7.988783 3.02363 29.586129 17.826341
2003-03-21 13:15:11 51°14.308 2°55.173 7.816264 3.025419 29.619441 18.331982
2003-03-21 13:16:11 51°14.209 2°55.34 7.932055 3.006367 29.406911 21.534375